Terminal Aerodrome Forecast
Issued by NWS

Current Version | Previous Version | Text Only | Print | Product List | Glossary Off
Versions: 1 2 3 4 5 6 7 8 9 10 11 12 13 14 15

000
FTUS41 KRNK 220520
TAFLWB
TAF
KLWB 220520Z 2206/2306 VRB03KT P6SM BKN060
     FM220700 28005KT P6SM BKN030
     FM221400 30010G20KT P6SM SCT040
     FM222300 33004KT P6SM SKC=

USA.gov is the U.S. government's official web portal to all federal, state and local government web resources and services.